sensor_id;sensor_type;location;lat;lon;timestamp;P1;durP1;ratioP1;P2;durP2;ratioP2
27580;SDS011;63557;52.302;7.964;2023-04-21T00:02:17;52.57;;;32.43;;
27580;SDS011;63557;52.302;7.964;2023-04-21T00:07:17;46.37;;;32.63;;
27580;SDS011;63557;52.302;7.964;2023-04-21T00:12:19;52.30;;;31.88;;
27580;SDS011;63557;52.302;7.964;2023-04-21T00:17:19;48.30;;;31.98;;
27580;SDS011;63557;52.302;7.964;2023-04-21T00:22:20;48.67;;;33.85;;
27580;SDS011;63557;52.302;7.964;2023-04-21T00:27:21;46.75;;;33.25;;
27580;SDS011;63557;52.302;7.964;2023-04-21T00:32:21;45.30;;;31.37;;
27580;SDS011;63557;52.302;7.964;2023-04-21T00:37:21;51.47;;;33.27;;
27580;SDS011;63557;52.302;7.964;2023-04-21T00:42:22;48.00;;;32.00;;
27580;SDS011;63557;52.302;7.964;2023-04-21T00:47:22;47.80;;;31.53;;
27580;SDS011;63557;52.302;7.964;2023-04-21T00:52:23;55.33;;;34.00;;
27580;SDS011;63557;52.302;7.964;2023-04-21T00:57:24;48.80;;;32.22;;
27580;SDS011;63557;52.302;7.964;2023-04-21T01:02:24;51.67;;;33.30;;
27580;SDS011;63557;52.302;7.964;2023-04-21T01:07:25;46.22;;;33.38;;
27580;SDS011;63557;52.302;7.964;2023-04-21T01:12:26;49.92;;;33.03;;
27580;SDS011;63557;52.302;7.964;2023-04-21T01:17:26;49.50;;;33.67;;
27580;SDS011;63557;52.302;7.964;2023-04-21T01:22:28;50.58;;;34.05;;
27580;SDS011;63557;52.302;7.964;2023-04-21T01:27:31;57.83;;;33.08;;
27580;SDS011;63557;52.302;7.964;2023-04-21T01:32:31;52.10;;;32.07;;
27580;SDS011;63557;52.302;7.964;2023-04-21T01:37:32;51.55;;;34.22;;
27580;SDS011;63557;52.302;7.964;2023-04-21T01:42:33;49.92;;;31.83;;
27580;SDS011;63557;52.302;7.964;2023-04-21T01:47:33;48.15;;;30.98;;
27580;SDS011;63557;52.302;7.964;2023-04-21T01:52:34;49.42;;;32.42;;
27580;SDS011;63557;52.302;7.964;2023-04-21T01:57:34;43.22;;;30.05;;
27580;SDS011;63557;52.302;7.964;2023-04-21T02:02:35;53.72;;;32.80;;
27580;SDS011;63557;52.302;7.964;2023-04-21T02:07:35;47.67;;;29.98;;
27580;SDS011;63557;52.302;7.964;2023-04-21T02:12:36;48.23;;;32.40;;
27580;SDS011;63557;52.302;7.964;2023-04-21T02:17:36;47.25;;;30.88;;
27580;SDS011;63557;52.302;7.964;2023-04-21T02:22:38;54.28;;;32.08;;
27580;SDS011;63557;52.302;7.964;2023-04-21T02:27:38;48.22;;;31.10;;
27580;SDS011;63557;52.302;7.964;2023-04-21T02:32:38;48.63;;;33.30;;
27580;SDS011;63557;52.302;7.964;2023-04-21T02:37:39;46.95;;;31.35;;
27580;SDS011;63557;52.302;7.964;2023-04-21T02:42:39;50.10;;;32.53;;
27580;SDS011;63557;52.302;7.964;2023-04-21T02:47:40;51.97;;;32.03;;
27580;SDS011;63557;52.302;7.964;2023-04-21T02:52:40;50.43;;;33.73;;
27580;SDS011;63557;52.302;7.964;2023-04-21T02:57:41;48.60;;;32.33;;
27580;SDS011;63557;52.302;7.964;2023-04-21T03:02:41;52.90;;;33.70;;
27580;SDS011;63557;52.302;7.964;2023-04-21T03:07:43;52.05;;;32.22;;
27580;SDS011;63557;52.302;7.964;2023-04-21T03:12:44;46.25;;;32.60;;
27580;SDS011;63557;52.302;7.964;2023-04-21T03:17:45;44.93;;;29.70;;
27580;SDS011;63557;52.302;7.964;2023-04-21T03:22:45;46.67;;;28.30;;
27580;SDS011;63557;52.302;7.964;2023-04-21T03:27:45;51.70;;;31.33;;
27580;SDS011;63557;52.302;7.964;2023-04-21T03:32:46;50.72;;;31.60;;
27580;SDS011;63557;52.302;7.964;2023-04-21T03:37:47;41.10;;;31.48;;
27580;SDS011;63557;52.302;7.964;2023-04-21T03:42:48;48.45;;;31.17;;
27580;SDS011;63557;52.302;7.964;2023-04-21T03:47:52;46.58;;;32.25;;
27580;SDS011;63557;52.302;7.964;2023-04-21T03:52:53;46.13;;;31.52;;
27580;SDS011;63557;52.302;7.964;2023-04-21T03:57:54;49.23;;;32.43;;
27580;SDS011;63557;52.302;7.964;2023-04-21T04:02:54;53.15;;;31.80;;
27580;SDS011;63557;52.302;7.964;2023-04-21T04:07:54;48.73;;;32.70;;
27580;SDS011;63557;52.302;7.964;2023-04-21T04:12:55;51.08;;;32.97;;
27580;SDS011;63557;52.302;7.964;2023-04-21T04:17:55;49.53;;;31.63;;
27580;SDS011;63557;52.302;7.964;2023-04-21T04:22:56;46.15;;;32.42;;
27580;SDS011;63557;52.302;7.964;2023-04-21T04:27:56;52.40;;;33.13;;
27580;SDS011;63557;52.302;7.964;2023-04-21T04:32:56;51.30;;;33.15;;
27580;SDS011;63557;52.302;7.964;2023-04-21T04:37:57;51.47;;;33.30;;
27580;SDS011;63557;52.302;7.964;2023-04-21T04:42:58;53.72;;;32.95;;
27580;SDS011;63557;52.302;7.964;2023-04-21T04:47:58;45.20;;;31.80;;
27580;SDS011;63557;52.302;7.964;2023-04-21T04:52:59;45.90;;;33.75;;
27580;SDS011;63557;52.302;7.964;2023-04-21T04:57:59;44.80;;;31.17;;
27580;SDS011;63557;52.302;7.964;2023-04-21T05:03:01;42.53;;;30.17;;
27580;SDS011;63557;52.302;7.964;2023-04-21T05:08:01;46.17;;;31.70;;
27580;SDS011;63557;52.302;7.964;2023-04-21T05:13:01;51.25;;;31.77;;
27580;SDS011;63557;52.302;7.964;2023-04-21T05:18:02;47.03;;;32.17;;
27580;SDS011;63557;52.302;7.964;2023-04-21T05:23:02;46.17;;;29.30;;
27580;SDS011;63557;52.302;7.964;2023-04-21T05:28:02;40.90;;;29.37;;
27580;SDS011;63557;52.302;7.964;2023-04-21T05:33:03;44.70;;;28.33;;
27580;SDS011;63557;52.302;7.964;2023-04-21T05:38:03;40.83;;;29.27;;
27580;SDS011;63557;52.302;7.964;2023-04-21T05:43:04;46.40;;;28.77;;
27580;SDS011;63557;52.302;7.964;2023-04-21T05:48:04;40.53;;;27.83;;
27580;SDS011;63557;52.302;7.964;2023-04-21T05:53:05;39.10;;;28.43;;
27580;SDS011;63557;52.302;7.964;2023-04-21T05:58:05;37.53;;;27.30;;
27580;SDS011;63557;52.302;7.964;2023-04-21T06:03:06;40.85;;;28.50;;
27580;SDS011;63557;52.302;7.964;2023-04-21T06:08:06;38.00;;;28.37;;
27580;SDS011;63557;52.302;7.964;2023-04-21T06:13:06;36.55;;;27.05;;
27580;SDS011;63557;52.302;7.964;2023-04-21T06:18:07;39.63;;;28.03;;
27580;SDS011;63557;52.302;7.964;2023-04-21T06:23:07;48.07;;;27.63;;
27580;SDS011;63557;52.302;7.964;2023-04-21T06:28:08;32.42;;;23.80;;
27580;SDS011;63557;52.302;7.964;2023-04-21T06:33:09;32.30;;;24.50;;
27580;SDS011;63557;52.302;7.964;2023-04-21T06:38:09;36.45;;;25.17;;
27580;SDS011;63557;52.302;7.964;2023-04-21T06:43:10;34.38;;;23.83;;
27580;SDS011;63557;52.302;7.964;2023-04-21T06:48:10;38.57;;;24.00;;
27580;SDS011;63557;52.302;7.964;2023-04-21T06:53:10;42.07;;;24.87;;
27580;SDS011;63557;52.302;7.964;2023-04-21T06:58:11;30.95;;;21.90;;
27580;SDS011;63557;52.302;7.964;2023-04-21T07:03:11;34.47;;;23.97;;
27580;SDS011;63557;52.302;7.964;2023-04-21T07:08:11;33.72;;;23.90;;
27580;SDS011;63557;52.302;7.964;2023-04-21T07:13:12;36.73;;;23.33;;
27580;SDS011;63557;52.302;7.964;2023-04-21T07:18:12;38.97;;;23.40;;
27580;SDS011;63557;52.302;7.964;2023-04-21T07:23:12;37.63;;;22.23;;
27580;SDS011;63557;52.302;7.964;2023-04-21T07:28:13;36.00;;;23.13;;
27580;SDS011;63557;52.302;7.964;2023-04-21T07:33:15;32.35;;;22.88;;
27580;SDS011;63557;52.302;7.964;2023-04-21T07:38:15;35.88;;;22.65;;
27580;SDS011;63557;52.302;7.964;2023-04-21T07:43:16;31.30;;;21.53;;
27580;SDS011;63557;52.302;7.964;2023-04-21T07:48:17;29.27;;;20.70;;
27580;SDS011;63557;52.302;7.964;2023-04-21T07:53:18;32.30;;;21.70;;
27580;SDS011;63557;52.302;7.964;2023-04-21T07:58:18;31.67;;;20.93;;
27580;SDS011;63557;52.302;7.964;2023-04-21T08:03:19;30.50;;;21.38;;
27580;SDS011;63557;52.302;7.964;2023-04-21T08:08:19;43.45;;;21.02;;
27580;SDS011;63557;52.302;7.964;2023-04-21T08:13:21;26.95;;;19.33;;
27580;SDS011;63557;52.302;7.964;2023-04-21T08:18:24;27.00;;;21.45;;
27580;SDS011;63557;52.302;7.964;2023-04-21T08:23:24;27.77;;;19.98;;
27580;SDS011;63557;52.302;7.964;2023-04-21T08:28:25;30.43;;;21.43;;
27580;SDS011;63557;52.302;7.964;2023-04-21T08:33:25;28.57;;;20.17;;
27580;SDS011;63557;52.302;7.964;2023-04-21T08:38:26;28.80;;;18.80;;
27580;SDS011;63557;52.302;7.964;2023-04-21T08:43:27;28.77;;;18.47;;
27580;SDS011;63557;52.302;7.964;2023-04-21T08:48:28;28.45;;;18.42;;
27580;SDS011;63557;52.302;7.964;2023-04-21T08:53:28;29.23;;;18.35;;
27580;SDS011;63557;52.302;7.964;2023-04-21T08:58:29;30.07;;;18.83;;
27580;SDS011;63557;52.302;7.964;2023-04-21T09:03:30;23.48;;;16.80;;
27580;SDS011;63557;52.302;7.964;2023-04-21T09:08:31;25.98;;;17.48;;
27580;SDS011;63557;52.302;7.964;2023-04-21T09:13:35;29.63;;;16.92;;
27580;SDS011;63557;52.302;7.964;2023-04-21T09:18:35;22.17;;;17.15;;
27580;SDS011;63557;52.302;7.964;2023-04-21T09:23:49;23.73;;;15.80;;
27580;SDS011;63557;52.302;7.964;2023-04-21T09:28:50;22.02;;;16.30;;
27580;SDS011;63557;52.302;7.964;2023-04-21T09:33:56;27.88;;;16.58;;
27580;SDS011;63557;52.302;7.964;2023-04-21T09:39:00;25.60;;;16.55;;
27580;SDS011;63557;52.302;7.964;2023-04-21T09:44:01;24.23;;;16.65;;
27580;SDS011;63557;52.302;7.964;2023-04-21T09:49:03;21.15;;;16.85;;
27580;SDS011;63557;52.302;7.964;2023-04-21T09:54:16;19.25;;;15.50;;
27580;SDS011;63557;52.302;7.964;2023-04-21T09:59:18;22.75;;;15.80;;
27580;SDS011;63557;52.302;7.964;2023-04-21T10:04:19;24.27;;;16.17;;
27580;SDS011;63557;52.302;7.964;2023-04-21T10:09:21;35.15;;;15.82;;
27580;SDS011;63557;52.302;7.964;2023-04-21T10:14:24;29.08;;;15.27;;
27580;SDS011;63557;52.302;7.964;2023-04-21T10:19:26;24.10;;;15.82;;
27580;SDS011;63557;52.302;7.964;2023-04-21T10:24:27;20.60;;;12.88;;
27580;SDS011;63557;52.302;7.964;2023-04-21T10:29:28;16.92;;;12.20;;
27580;SDS011;63557;52.302;7.964;2023-04-21T10:34:34;21.13;;;11.75;;
27580;SDS011;63557;52.302;7.964;2023-04-21T10:39:35;18.50;;;11.60;;
27580;SDS011;63557;52.302;7.964;2023-04-21T10:44:36;14.13;;;11.35;;
27580;SDS011;63557;52.302;7.964;2023-04-21T10:49:40;16.43;;;11.07;;
27580;SDS011;63557;52.302;7.964;2023-04-21T10:54:41;14.33;;;10.73;;
27580;SDS011;63557;52.302;7.964;2023-04-21T10:59:43;14.63;;;10.73;;
27580;SDS011;63557;52.302;7.964;2023-04-21T11:04:43;21.02;;;10.15;;
27580;SDS011;63557;52.302;7.964;2023-04-21T11:09:47;17.63;;;10.38;;
27580;SDS011;63557;52.302;7.964;2023-04-21T11:14:47;16.10;;;8.55;;
27580;SDS011;63557;52.302;7.964;2023-04-21T11:19:49;21.03;;;8.77;;
27580;SDS011;63557;52.302;7.964;2023-04-21T11:24:50;24.80;;;9.00;;
27580;SDS011;63557;52.302;7.964;2023-04-21T11:29:52;15.02;;;7.88;;
27580;SDS011;63557;52.302;7.964;2023-04-21T11:34:53;11.20;;;7.63;;
27580;SDS011;63557;52.302;7.964;2023-04-21T11:39:57;10.20;;;7.43;;
27580;SDS011;63557;52.302;7.964;2023-04-21T11:44:57;10.53;;;7.63;;
27580;SDS011;63557;52.302;7.964;2023-04-21T11:49:59;19.27;;;7.60;;
27580;SDS011;63557;52.302;7.964;2023-04-21T11:55:00;14.13;;;8.20;;
27580;SDS011;63557;52.302;7.964;2023-04-21T12:00:02;18.42;;;7.60;;
27580;SDS011;63557;52.302;7.964;2023-04-21T12:05:11;13.70;;;7.18;;
27580;SDS011;63557;52.302;7.964;2023-04-21T12:10:12;34.17;;;8.32;;
27580;SDS011;63557;52.302;7.964;2023-04-21T12:15:17;16.52;;;8.52;;
27580;SDS011;63557;52.302;7.964;2023-04-21T12:20:18;12.27;;;6.57;;
27580;SDS011;63557;52.302;7.964;2023-04-21T12:25:19;12.23;;;7.45;;
27580;SDS011;63557;52.302;7.964;2023-04-21T12:30:20;15.37;;;7.13;;
27580;SDS011;63557;52.302;7.964;2023-04-21T12:35:21;18.98;;;7.53;;
27580;SDS011;63557;52.302;7.964;2023-04-21T12:40:21;22.85;;;7.00;;
27580;SDS011;63557;52.302;7.964;2023-04-21T12:45:22;19.52;;;6.10;;
27580;SDS011;63557;52.302;7.964;2023-04-21T12:50:22;7.43;;;5.38;;
27580;SDS011;63557;52.302;7.964;2023-04-21T12:55:22;12.17;;;5.50;;
27580;SDS011;63557;52.302;7.964;2023-04-21T13:00:23;10.87;;;6.20;;
27580;SDS011;63557;52.302;7.964;2023-04-21T13:05:23;14.47;;;5.30;;
27580;SDS011;63557;52.302;7.964;2023-04-21T13:10:24;11.50;;;5.30;;
27580;SDS011;63557;52.302;7.964;2023-04-21T13:15:24;12.32;;;5.35;;
27580;SDS011;63557;52.302;7.964;2023-04-21T13:20:25;11.25;;;6.32;;
27580;SDS011;63557;52.302;7.964;2023-04-21T13:25:25;14.93;;;6.45;;
27580;SDS011;63557;52.302;7.964;2023-04-21T13:30:26;18.80;;;5.80;;
27580;SDS011;63557;52.302;7.964;2023-04-21T13:35:26;9.20;;;5.20;;
27580;SDS011;63557;52.302;7.964;2023-04-21T13:40:27;19.77;;;6.17;;
27580;SDS011;63557;52.302;7.964;2023-04-21T13:45:27;11.27;;;6.18;;
27580;SDS011;63557;52.302;7.964;2023-04-21T13:50:27;9.43;;;5.20;;
27580;SDS011;63557;52.302;7.964;2023-04-21T13:55:28;12.03;;;5.27;;
27580;SDS011;63557;52.302;7.964;2023-04-21T14:00:28;11.03;;;4.40;;
27580;SDS011;63557;52.302;7.964;2023-04-21T14:05:28;12.20;;;5.27;;
27580;SDS011;63557;52.302;7.964;2023-04-21T14:10:29;14.65;;;5.50;;
27580;SDS011;63557;52.302;7.964;2023-04-21T14:15:30;22.10;;;4.63;;
27580;SDS011;63557;52.302;7.964;2023-04-21T14:20:30;12.10;;;4.70;;
27580;SDS011;63557;52.302;7.964;2023-04-21T14:25:31;11.23;;;4.80;;
27580;SDS011;63557;52.302;7.964;2023-04-21T14:30:32;14.67;;;4.60;;
27580;SDS011;63557;52.302;7.964;2023-04-21T14:35:32;9.82;;;4.68;;
27580;SDS011;63557;52.302;7.964;2023-04-21T14:40:35;11.63;;;5.32;;
27580;SDS011;63557;52.302;7.964;2023-04-21T14:45:35;15.33;;;5.23;;
27580;SDS011;63557;52.302;7.964;2023-04-21T14:50:35;36.13;;;6.03;;
27580;SDS011;63557;52.302;7.964;2023-04-21T14:55:36;16.23;;;4.73;;
27580;SDS011;63557;52.302;7.964;2023-04-21T15:00:37;9.97;;;4.33;;
27580;SDS011;63557;52.302;7.964;2023-04-21T15:05:37;15.18;;;4.50;;
27580;SDS011;63557;52.302;7.964;2023-04-21T15:10:37;15.00;;;4.83;;
27580;SDS011;63557;52.302;7.964;2023-04-21T15:15:38;10.63;;;4.63;;
27580;SDS011;63557;52.302;7.964;2023-04-21T15:20:39;10.60;;;5.53;;
27580;SDS011;63557;52.302;7.964;2023-04-21T15:25:41;11.02;;;5.18;;
27580;SDS011;63557;52.302;7.964;2023-04-21T15:30:42;8.20;;;4.95;;
27580;SDS011;63557;52.302;7.964;2023-04-21T15:35:42;14.60;;;5.10;;
27580;SDS011;63557;52.302;7.964;2023-04-21T15:40:42;12.50;;;5.27;;
27580;SDS011;63557;52.302;7.964;2023-04-21T15:45:43;8.60;;;5.27;;
27580;SDS011;63557;52.302;7.964;2023-04-21T15:50:43;11.50;;;5.30;;
27580;SDS011;63557;52.302;7.964;2023-04-21T15:55:44;13.93;;;5.53;;
27580;SDS011;63557;52.302;7.964;2023-04-21T16:00:44;11.70;;;5.47;;
27580;SDS011;63557;52.302;7.964;2023-04-21T16:05:45;7.47;;;5.20;;
27580;SDS011;63557;52.302;7.964;2023-04-21T16:10:45;19.63;;;5.70;;
27580;SDS011;63557;52.302;7.964;2023-04-21T16:15:46;10.68;;;5.30;;
27580;SDS011;63557;52.302;7.964;2023-04-21T16:20:46;12.93;;;5.60;;
27580;SDS011;63557;52.302;7.964;2023-04-21T16:25:46;11.88;;;5.00;;
27580;SDS011;63557;52.302;7.964;2023-04-21T16:30:47;10.30;;;5.40;;
27580;SDS011;63557;52.302;7.964;2023-04-21T16:35:49;12.93;;;5.05;;
27580;SDS011;63557;52.302;7.964;2023-04-21T16:40:51;10.70;;;5.03;;
27580;SDS011;63557;52.302;7.964;2023-04-21T16:45:51;12.40;;;4.90;;
27580;SDS011;63557;52.302;7.964;2023-04-21T16:50:52;8.20;;;4.83;;
27580;SDS011;63557;52.302;7.964;2023-04-21T16:55:53;10.75;;;5.75;;
27580;SDS011;63557;52.302;7.964;2023-04-21T17:00:53;8.40;;;5.18;;
27580;SDS011;63557;52.302;7.964;2023-04-21T17:05:54;14.13;;;5.88;;
27580;SDS011;63557;52.302;7.964;2023-04-21T17:10:54;12.95;;;4.65;;
27580;SDS011;63557;52.302;7.964;2023-04-21T17:15:55;12.90;;;5.15;;
27580;SDS011;63557;52.302;7.964;2023-04-21T17:20:55;15.05;;;6.38;;
27580;SDS011;63557;52.302;7.964;2023-04-21T17:25:56;11.23;;;5.20;;
27580;SDS011;63557;52.302;7.964;2023-04-21T17:30:56;14.67;;;5.50;;
27580;SDS011;63557;52.302;7.964;2023-04-21T17:35:57;10.27;;;4.95;;
27580;SDS011;63557;52.302;7.964;2023-04-21T17:40:57;12.13;;;5.80;;
27580;SDS011;63557;52.302;7.964;2023-04-21T17:45:58;11.45;;;5.50;;
27580;SDS011;63557;52.302;7.964;2023-04-21T17:50:59;8.68;;;5.38;;
27580;SDS011;63557;52.302;7.964;2023-04-21T17:55:59;11.90;;;5.78;;
27580;SDS011;63557;52.302;7.964;2023-04-21T18:01:00;9.23;;;5.13;;
27580;SDS011;63557;52.302;7.964;2023-04-21T18:06:03;7.80;;;4.90;;
27580;SDS011;63557;52.302;7.964;2023-04-21T18:11:04;13.18;;;6.03;;
27580;SDS011;63557;52.302;7.964;2023-04-21T18:16:05;11.93;;;5.72;;
27580;SDS011;63557;52.302;7.964;2023-04-21T18:21:05;9.85;;;5.75;;
27580;SDS011;63557;52.302;7.964;2023-04-21T18:26:06;13.70;;;5.78;;
27580;SDS011;63557;52.302;7.964;2023-04-21T18:31:07;10.98;;;5.97;;
27580;SDS011;63557;52.302;7.964;2023-04-21T18:36:07;11.43;;;5.67;;
27580;SDS011;63557;52.302;7.964;2023-04-21T18:41:08;9.27;;;5.53;;
27580;SDS011;63557;52.302;7.964;2023-04-21T18:46:08;9.47;;;6.17;;
27580;SDS011;63557;52.302;7.964;2023-04-21T18:51:08;15.73;;;6.23;;
27580;SDS011;63557;52.302;7.964;2023-04-21T18:56:09;11.37;;;5.70;;
27580;SDS011;63557;52.302;7.964;2023-04-21T19:01:09;8.90;;;5.07;;
27580;SDS011;63557;52.302;7.964;2023-04-21T19:06:09;10.63;;;5.53;;
27580;SDS011;63557;52.302;7.964;2023-04-21T19:11:13;10.73;;;5.37;;
27580;SDS011;63557;52.302;7.964;2023-04-21T19:16:16;11.30;;;6.00;;
27580;SDS011;63557;52.302;7.964;2023-04-21T19:21:17;8.05;;;5.15;;
27580;SDS011;63557;52.302;7.964;2023-04-21T19:26:17;12.70;;;6.28;;
27580;SDS011;63557;52.302;7.964;2023-04-21T19:31:17;15.93;;;6.03;;
27580;SDS011;63557;52.302;7.964;2023-04-21T19:36:20;10.77;;;6.60;;
27580;SDS011;63557;52.302;7.964;2023-04-21T19:41:21;15.77;;;5.97;;
27580;SDS011;63557;52.302;7.964;2023-04-21T19:46:21;15.13;;;7.22;;
27580;SDS011;63557;52.302;7.964;2023-04-21T19:51:21;9.63;;;5.83;;
27580;SDS011;63557;52.302;7.964;2023-04-21T19:56:22;8.95;;;5.43;;
27580;SDS011;63557;52.302;7.964;2023-04-21T20:01:23;10.40;;;5.63;;
27580;SDS011;63557;52.302;7.964;2023-04-21T20:06:23;9.33;;;5.80;;
27580;SDS011;63557;52.302;7.964;2023-04-21T20:11:24;13.00;;;6.75;;
27580;SDS011;63557;52.302;7.964;2023-04-21T20:16:25;11.88;;;6.57;;
27580;SDS011;63557;52.302;7.964;2023-04-21T20:21:26;9.43;;;6.15;;
27580;SDS011;63557;52.302;7.964;2023-04-21T20:26:26;11.30;;;6.72;;
27580;SDS011;63557;52.302;7.964;2023-04-21T20:31:26;7.53;;;6.23;;
27580;SDS011;63557;52.302;7.964;2023-04-21T20:36:27;13.67;;;6.50;;
27580;SDS011;63557;52.302;7.964;2023-04-21T20:41:27;11.03;;;6.60;;
27580;SDS011;63557;52.302;7.964;2023-04-21T20:46:28;8.25;;;6.60;;
27580;SDS011;63557;52.302;7.964;2023-04-21T20:51:29;12.40;;;7.40;;
27580;SDS011;63557;52.302;7.964;2023-04-21T20:56:29;9.30;;;6.70;;
27580;SDS011;63557;52.302;7.964;2023-04-21T21:01:29;12.63;;;7.37;;
27580;SDS011;63557;52.302;7.964;2023-04-21T21:06:35;13.60;;;7.72;;
27580;SDS011;63557;52.302;7.964;2023-04-21T21:11:36;11.52;;;7.70;;
27580;SDS011;63557;52.302;7.964;2023-04-21T21:16:36;14.80;;;7.67;;
27580;SDS011;63557;52.302;7.964;2023-04-21T21:21:37;10.15;;;6.85;;
27580;SDS011;63557;52.302;7.964;2023-04-21T21:26:37;12.70;;;6.88;;
27580;SDS011;63557;52.302;7.964;2023-04-21T21:31:39;18.40;;;6.75;;
27580;SDS011;63557;52.302;7.964;2023-04-21T21:36:39;15.13;;;6.80;;
27580;SDS011;63557;52.302;7.964;2023-04-21T21:41:40;9.15;;;7.03;;
27580;SDS011;63557;52.302;7.964;2023-04-21T21:46:40;9.77;;;6.77;;
27580;SDS011;63557;52.302;7.964;2023-04-21T21:51:41;14.68;;;7.75;;
27580;SDS011;63557;52.302;7.964;2023-04-21T21:56:41;10.17;;;7.30;;
27580;SDS011;63557;52.302;7.964;2023-04-21T22:01:42;13.65;;;6.60;;
27580;SDS011;63557;52.302;7.964;2023-04-21T22:06:42;12.40;;;6.60;;
27580;SDS011;63557;52.302;7.964;2023-04-21T22:11:44;13.38;;;7.43;;
27580;SDS011;63557;52.302;7.964;2023-04-21T22:16:45;13.05;;;6.40;;
27580;SDS011;63557;52.302;7.964;2023-04-21T22:21:45;8.40;;;6.30;;
27580;SDS011;63557;52.302;7.964;2023-04-21T22:26:46;7.30;;;5.00;;
27580;SDS011;63557;52.302;7.964;2023-04-21T22:31:46;13.25;;;6.35;;
27580;SDS011;63557;52.302;7.964;2023-04-21T22:36:46;8.37;;;6.40;;
27580;SDS011;63557;52.302;7.964;2023-04-21T22:41:47;10.53;;;7.07;;
27580;SDS011;63557;52.302;7.964;2023-04-21T22:46:47;10.07;;;7.45;;
27580;SDS011;63557;52.302;7.964;2023-04-21T22:51:48;8.40;;;6.97;;
27580;SDS011;63557;52.302;7.964;2023-04-21T22:56:49;11.07;;;7.45;;
27580;SDS011;63557;52.302;7.964;2023-04-21T23:01:49;9.10;;;8.02;;
27580;SDS011;63557;52.302;7.964;2023-04-21T23:06:50;13.27;;;9.00;;
27580;SDS011;63557;52.302;7.964;2023-04-21T23:11:50;10.57;;;7.60;;
27580;SDS011;63557;52.302;7.964;2023-04-21T23:16:50;15.27;;;11.20;;
27580;SDS011;63557;52.302;7.964;2023-04-21T23:21:51;15.83;;;8.77;;
27580;SDS011;63557;52.302;7.964;2023-04-21T23:26:51;11.37;;;8.47;;
27580;SDS011;63557;52.302;7.964;2023-04-21T23:31:51;15.80;;;10.10;;
27580;SDS011;63557;52.302;7.964;2023-04-21T23:36:52;12.50;;;9.60;;
27580;SDS011;63557;52.302;7.964;2023-04-21T23:41:52;12.40;;;8.60;;
27580;SDS011;63557;52.302;7.964;2023-04-21T23:46:53;12.30;;;9.40;;
27580;SDS011;63557;52.302;7.964;2023-04-21T23:51:53;16.13;;;10.33;;
27580;SDS011;63557;52.302;7.964;2023-04-21T23:56:54;20.90;;;12.48;;
